Etusivu
METAR-TAF:

METAR-TAF

Lentoasemat :

Andøya, Norja

Leveyspiiri: 69-18N, Pituuspiiri: 016-09E, korkeus merenpinnasta: 1 m

Tämänhetkinen sää

Tämä raportti tehtiin 31 minuuttia sitten, kello 20.20 UTC
Tuuli 6 kn idästä/koillisesta
Lämpötila 4°C
Kosteus 60%
Ilmanpaine 1020 hPa
Näkyvyys 10 km tai enemmän
Hajanaisia pilviä 6100 ft:n korkeudessa

METAR: ENAN 262020Z 06006KT 9999 SCT061 04/M03 Q1020

Aika: 22:51 (20:51 UTC)

Sääennuste

Ennuste voimassa 26. päivästä klo 18 UTC - 27. päivään klo 18 UTC
Tuuli 8 kn koillisesta
Näkyvyys 10 km tai enemmän
Muutamia pilviä 3500 ft:n korkeudessa
Hajanaisia pilviä 5000 ft:n korkeudessa
Tulossa
27. päivästä klo 09 UTC - 27. päivään klo 11 UTC
Tuuli 18 kn koillisesta

TAF: ENAN 2618/2718 05008KT 9999 FEW035 SCT050 BECMG 2709/2711 05018KT

Säähavainnot ja -ennusteet yli 4000 lentoasemalta (METAR- ja TAF-raportit).

Käytössä olevat sääasemat on merkitty karttaan keltaisilla ja punaisilla pisteillä.

Aseta hiiri pisteen päälle nähdäksesi sääaseman nimen.

Klikkaa sitten nähdäksesi säähavainnot ja -ennusteet.

Kartan vaihtaminen: klikkaa mustalla rastilla varustettuja vihreitä pisteitä, niin voit zoomata sisään; viivalla varustettua vihreää pistettä, niin voit zoomata ulos tai vihreitä nuolia, niin pääset viereisille kartoille.


METAR-TAF: